Time;durP1;ratioP1;P1;durP2;ratioP2;P2;SDS_P1;SDS_P2;PMS_P1;PMS_P2;Temp;Humidity;BMP_temperature;BMP_pressure;BME280_temperature;BME280_humidity;BME280_pressure;Samples;Min_cycle;Max_cycle;Signal;HPM_P1;HPM_P2
2021/04/17 00:01:23;;;;;;;17.70;10.48;;;;;;;4.91;64.06;96711.44;5051210;28;20045;-65
2021/04/17 00:03:49;;;;;;;20.08;11.73;;;;;;;4.88;64.29;96701.97;5053001;28;20073;-65
2021/04/17 00:06:16;;;;;;;20.88;11.88;;;;;;;4.87;64.67;96700.38;5051239;28;20120;-65
2021/04/17 00:08:42;;;;;;;20.67;11.98;;;;;;;4.85;64.70;96702.50;5052479;28;20053;-65
2021/04/17 00:11:08;;;;;;;19.75;11.85;;;;;;;4.84;64.50;96695.50;5051394;28;20052;-66
2021/04/17 00:13:35;;;;;;;17.58;10.23;;;;;;;4.83;64.71;96704.69;5051867;28;20045;-65
2021/04/17 00:16:01;;;;;;;21.17;11.60;;;;;;;4.81;64.66;96690.66;5052046;28;20053;-65
2021/04/17 00:18:27;;;;;;;20.02;11.45;;;;;;;4.80;64.66;96696.31;5051393;28;20555;-65
2021/04/17 00:20:53;;;;;;;19.77;11.98;;;;;;;4.80;64.59;96689.03;5052216;28;20053;-65
2021/04/17 00:23:19;;;;;;;21.05;11.68;;;;;;;4.78;64.85;96687.69;5050581;28;20681;-65
2021/04/17 00:25:45;;;;;;;18.25;11.30;;;;;;;4.75;64.91;96697.16;5052643;28;20060;-65
2021/04/17 00:28:12;;;;;;;17.13;10.60;;;;;;;4.71;65.09;96685.28;5050596;28;20049;-65
2021/04/17 00:30:37;;;;;;;16.50;10.23;;;;;;;4.67;65.10;96695.81;5052267;28;20577;-65
2021/04/17 00:33:04;;;;;;;18.00;10.90;;;;;;;4.66;65.33;96688.00;5050783;28;20044;-65
2021/04/17 00:35:30;;;;;;;17.67;10.00;;;;;;;4.64;65.31;96685.53;5051875;28;20496;-65
2021/04/17 00:37:56;;;;;;;18.65;9.75;;;;;;;4.62;65.12;96681.50;5051531;28;20045;-65
2021/04/17 00:40:22;;;;;;;15.05;9.43;;;;;;;4.60;65.18;96678.28;5050947;28;20053;-65
2021/04/17 00:42:48;;;;;;;15.10;9.73;;;;;;;4.58;65.33;96680.44;5051409;28;20492;-65
2021/04/17 00:45:15;;;;;;;16.75;10.85;;;;;;;4.55;65.28;96675.59;5050551;28;20580;-66
2021/04/17 00:47:41;;;;;;;16.42;9.50;;;;;;;4.53;65.46;96670.47;5052051;28;20090;-65
2021/04/17 00:50:09;;;;;;;15.43;8.95;;;;;;;4.53;65.41;96672.34;5050172;28;20496;-66
2021/04/17 00:52:35;;;;;;;16.10;10.20;;;;;;;4.52;65.41;96670.75;5052116;28;20074;-65
2021/04/17 00:55:01;;;;;;;15.98;10.23;;;;;;;4.50;65.46;96672.91;5050780;28;20503;-65
2021/04/17 00:57:27;;;;;;;14.57;8.90;;;;;;;4.48;65.46;96661.56;5051412;28;20041;-65
2021/04/17 00:59:53;;;;;;;18.17;10.40;;;;;;;4.45;65.55;96666.44;5050152;28;20053;-65
2021/04/17 01:02:26;;;;;;;16.52;10.18;;;;;;;4.43;65.52;96668.56;5050861;28;20111;-65
2021/04/17 01:04:53;;;;;;;16.20;10.70;;;;;;;4.38;65.67;96665.88;5050916;28;20056;-65
2021/04/17 01:07:23;;;;;;;16.17;9.90;;;;;;;4.36;65.96;96659.97;5050113;28;20045;-65
2021/04/17 01:09:53;;;;;;;17.85;10.85;;;;;;;4.33;66.18;96665.06;5051321;28;20053;-65
2021/04/17 01:12:22;;;;;;;16.33;9.95;;;;;;;4.31;66.15;96659.16;5047426;28;20102;-65
2021/04/17 01:14:51;;;;;;;15.40;10.07;;;;;;;4.28;66.29;96662.38;5051569;28;20057;-65
2021/04/17 01:17:19;;;;;;;16.00;10.13;;;;;;;4.26;66.31;96662.66;5049815;28;20063;-65
2021/04/17 01:20:01;;;;;;;17.17;10.38;;;;;;;4.22;66.38;96660.78;5051136;28;20122;-65
2021/04/17 01:22:28;;;;;;;16.05;9.88;;;;;;;4.18;66.53;96666.72;5050393;28;20041;-65
2021/04/17 01:25:01;;;;;;;16.25;10.18;;;;;;;4.15;66.72;96661.03;5050089;28;20052;-65
2021/04/17 01:27:28;;;;;;;16.63;10.45;;;;;;;4.13;66.59;96657.81;5032732;28;20052;-65
2021/04/17 01:29:55;;;;;;;16.83;9.95;;;;;;;4.08;66.79;96658.63;5049988;28;20045;-65
2021/04/17 01:32:21;;;;;;;16.83;10.18;;;;;;;4.07;66.89;96661.56;5050709;28;20540;-65
2021/04/17 01:34:50;;;;;;;16.42;10.25;;;;;;;4.03;67.00;96650.53;5049859;28;20045;-65
2021/04/17 01:37:16;;;;;;;17.67;10.43;;;;;;;4.01;66.64;96643.78;5050607;28;20052;-65
2021/04/17 01:39:43;;;;;;;16.42;9.40;;;;;;;3.97;66.96;96642.69;5049846;28;20045;-65
2021/04/17 01:42:14;;;;;;;18.58;10.55;;;;;;;3.93;67.00;96647.84;5049525;28;20072;-65
2021/04/17 01:44:45;;;;;;;17.80;10.80;;;;;;;3.89;67.20;96647.56;5049849;28;20045;-65
2021/04/17 01:47:14;;;;;;;18.17;10.73;;;;;;;3.86;67.48;96642.72;5049794;28;20045;-65
2021/04/17 01:49:43;;;;;;;18.60;10.70;;;;;;;3.84;67.47;96649.44;5050345;28;20499;-65
2021/04/17 01:52:12;;;;;;;17.02;10.43;;;;;;;3.82;67.55;96652.41;5049001;28;20045;-65
2021/04/17 01:54:43;;;;;;;16.92;9.90;;;;;;;3.80;67.67;96654.53;5050732;28;20570;-65
2021/04/17 01:57:13;;;;;;;16.67;10.13;;;;;;;3.78;67.75;96645.94;5049425;28;20127;-65
2021/04/17 01:59:41;;;;;;;17.60;11.00;;;;;;;3.76;67.73;96647.25;5050601;28;20398;-65
2021/04/17 02:02:07;;;;;;;18.05;10.70;;;;;;;3.71;67.86;96645.38;5049446;28;20041;-66
2021/04/17 02:04:33;;;;;;;19.80;10.63;;;;;;;3.69;68.08;96642.13;5049428;28;20041;-65
2021/04/17 02:06:59;;;;;;;19.45;10.93;;;;;;;3.67;68.31;96645.09;5049897;28;20045;-65
2021/04/17 02:09:25;;;;;;;19.13;10.85;;;;;;;3.67;68.36;96639.72;5048978;28;20052;-65
2021/04/17 02:11:51;;;;;;;17.73;10.63;;;;;;;3.67;68.53;96637.03;5049824;28;20049;-65
2021/04/17 02:14:17;;;;;;;18.98;11.15;;;;;;;3.68;68.68;96632.44;5048998;28;20048;-65
2021/04/17 02:16:50;;;;;;;21.00;11.07;;;;;;;3.69;68.91;96625.16;5050453;28;20060;-65
2021/04/17 02:19:21;;;;;;;21.55;12.02;;;;;;;3.71;68.94;96623.84;5048932;28;20060;-65
2021/04/17 02:21:48;;;;;;;22.38;11.57;;;;;;;3.75;69.12;96635.66;5050492;28;20056;-65
2021/04/17 02:24:14;;;;;;;21.10;11.27;;;;;;;3.78;68.96;96629.75;5050035;28;20041;-65
2021/04/17 02:26:41;;;;;;;20.65;11.77;;;;;;;3.81;69.05;96628.41;5050273;28;20053;-65
2021/04/17 02:29:07;;;;;;;20.63;11.80;;;;;;;3.83;69.33;96624.38;5049324;28;20052;-66
2021/04/17 02:31:35;;;;;;;21.42;12.27;;;;;;;3.87;69.29;96627.34;5049815;28;20056;-65
2021/04/17 02:34:03;;;;;;;22.38;11.73;;;;;;;3.91;69.22;96626.56;5050029;28;20102;-65
2021/04/17 02:36:29;;;;;;;19.63;11.32;;;;;;;3.92;69.07;96620.09;5048985;28;20454;-65
2021/04/17 02:38:55;;;;;;;21.40;10.93;;;;;;;3.91;68.66;96621.16;5050101;28;20045;-65
2021/04/17 02:41:21;;;;;;;18.17;10.93;;;;;;;3.91;68.54;96615.78;5049454;28;20045;-65
2021/04/17 02:43:47;;;;;;;20.63;11.20;;;;;;;3.90;68.42;96616.84;5050178;28;20041;-65
2021/04/17 02:46:14;;;;;;;21.08;12.02;;;;;;;3.89;68.38;96623.31;5048894;28;20056;-65
2021/04/17 02:48:40;;;;;;;19.80;11.30;;;;;;;3.92;68.68;96616.59;5050109;28;20049;-65
2021/04/17 02:51:07;;;;;;;18.83;10.73;;;;;;;3.92;68.68;96614.69;5049090;28;20411;-65
2021/04/17 02:53:33;;;;;;;19.52;11.23;;;;;;;3.92;68.81;96609.31;5049690;28;20045;-65
2021/04/17 02:55:59;;;;;;;19.02;10.98;;;;;;;3.93;68.58;96616.31;5049687;28;20053;-65
2021/04/17 02:58:25;;;;;;;19.60;10.27;;;;;;;3.96;68.69;96619.53;5048211;28;20126;-65
2021/04/17 03:00:51;;;;;;;20.33;11.07;;;;;;;3.99;68.65;96619.00;5050041;28;20472;-65
2021/04/17 03:03:17;;;;;;;21.77;11.15;;;;;;;3.95;68.24;96609.84;5048435;28;20531;-65
2021/04/17 03:05:43;;;;;;;21.45;11.98;;;;;;;3.93;68.29;96615.50;5050277;28;20053;-65
2021/04/17 03:08:11;;;;;;;20.40;11.05;;;;;;;3.92;68.27;96614.69;5048440;28;20064;-66
2021/04/17 03:10:37;;;;;;;20.00;10.77;;;;;;;3.92;68.24;96612.00;5049704;28;20099;-65
2021/04/17 03:13:04;;;;;;;21.60;11.45;;;;;;;3.89;68.41;96617.91;5048127;28;20052;-66
2021/04/17 03:15:30;;;;;;;20.20;11.40;;;;;;;3.90;68.53;96616.84;5049502;28;20106;-65
2021/04/17 03:17:56;;;;;;;21.13;12.15;;;;;;;3.88;68.41;96618.19;5049011;28;20072;-65
2021/04/17 03:20:22;;;;;;;26.30;12.30;;;;;;;3.86;68.50;96621.16;5048850;28;20053;-65
2021/04/17 03:22:48;;;;;;;20.75;10.90;;;;;;;3.86;68.68;96614.94;5051104;28;20051;-65
2021/04/17 03:25:15;;;;;;;22.85;11.40;;;;;;;3.80;68.71;96611.44;5051833;28;20067;-65
2021/04/17 03:27:42;;;;;;;21.60;11.57;;;;;;;3.80;68.71;96611.44;5053254;28;20045;-65
2021/04/17 03:30:11;;;;;;;21.67;12.20;;;;;;;3.77;68.75;96601.22;5051648;28;20120;-66
2021/04/17 03:32:37;;;;;;;23.17;11.38;;;;;;;3.75;68.84;96608.75;5053650;28;20052;-65
2021/04/17 03:35:04;;;;;;;22.35;12.00;;;;;;;3.72;68.74;96603.91;5051417;28;20053;-66
2021/04/17 03:37:30;;;;;;;22.95;12.30;;;;;;;3.69;68.90;96604.44;5052945;28;20400;-65
2021/04/17 03:39:56;;;;;;;22.70;12.18;;;;;;;3.69;69.09;96604.44;5052231;28;20045;-65
2021/04/17 03:42:22;;;;;;;23.65;12.52;;;;;;;3.70;69.05;96600.66;5051653;28;20048;-65
2021/04/17 03:44:48;;;;;;;21.80;11.88;;;;;;;3.72;68.99;96598.53;5052564;28;20053;-65
2021/04/17 03:47:14;;;;;;;25.10;13.02;;;;;;;3.70;68.92;96597.97;5051879;28;20041;-65
2021/04/17 03:49:40;;;;;;;25.38;12.60;;;;;;;3.72;68.80;96593.13;5052923;28;20044;-65
2021/04/17 03:52:07;;;;;;;21.45;11.95;;;;;;;3.74;68.65;96596.34;5051449;28;20500;-65
2021/04/17 03:54:33;;;;;;;22.05;12.85;;;;;;;3.76;68.69;96599.59;5052385;28;20060;-65
2021/04/17 03:56:59;;;;;;;23.35;12.23;;;;;;;3.75;68.83;96603.34;5051649;28;20041;-65
2021/04/17 03:59:26;;;;;;;21.65;11.80;;;;;;;3.78;68.44;96596.63;5051956;28;20071;-65
2021/04/17 04:01:52;;;;;;;25.30;13.30;;;;;;;3.78;68.54;96608.22;5051069;28;20049;-65
2021/04/17 04:04:18;;;;;;;24.55;12.27;;;;;;;3.77;68.54;96608.50;5051457;28;20390;-65
2021/04/17 04:06:44;;;;;;;25.42;13.45;;;;;;;3.79;68.64;96603.63;5051577;28;20068;-65
2021/04/17 04:09:10;;;;;;;23.95;12.95;;;;;;;3.77;68.66;96600.41;5051269;28;20068;-65
2021/04/17 04:11:36;;;;;;;24.20;12.88;;;;;;;3.76;68.57;96599.59;5051295;28;20407;-65
2021/04/17 04:14:02;;;;;;;23.40;13.38;;;;;;;3.71;68.79;96605.00;5051432;28;20068;-68
2021/04/17 04:16:29;;;;;;;23.88;13.00;;;;;;;3.68;69.04;96608.19;5052491;28;20515;-65
2021/04/17 04:18:55;;;;;;;23.98;13.05;;;;;;;3.61;69.07;96604.97;5051410;28;20056;-65
2021/04/17 04:21:21;;;;;;;26.85;13.77;;;;;;;3.50;69.24;96611.38;5052186;28;20041;-65
2021/04/17 04:23:47;;;;;;;25.00;13.20;;;;;;;3.46;69.36;96608.44;5051295;28;20051;-65
2021/04/17 04:26:13;;;;;;;25.05;13.45;;;;;;;3.37;69.64;96605.44;5052031;28;20041;-65
2021/04/17 04:28:39;;;;;;;24.23;12.45;;;;;;;3.31;69.94;96609.22;5051322;28;20056;-65
2021/04/17 04:31:05;;;;;;;25.50;14.23;;;;;;;3.18;70.29;96617.75;5051590;28;20435;-65
2021/04/17 04:33:32;;;;;;;26.85;13.15;;;;;;;3.20;70.57;96622.91;5050244;28;20561;-65
2021/04/17 04:35:58;;;;;;;28.10;13.50;;;;;;;3.23;70.77;96616.97;5051486;28;20041;-65
2021/04/17 04:38:24;;;;;;;23.45;13.20;;;;;;;3.29;70.94;96618.59;5051245;28;20574;-65
2021/04/17 04:40:50;;;;;;;22.73;12.82;;;;;;;3.35;71.04;96623.75;5051118;28;20056;-65
2021/04/17 04:43:16;;;;;;;23.70;12.80;;;;;;;3.40;70.91;96618.38;5050928;28;20536;-65
2021/04/17 04:45:42;;;;;;;30.05;13.82;;;;;;;3.45;70.92;96620.28;5050819;28;20516;-65
2021/04/17 04:48:09;;;;;;;25.33;13.05;;;;;;;3.50;70.94;96627.53;5051628;28;20133;-65
2021/04/17 04:50:36;;;;;;;24.52;14.25;;;;;;;3.56;70.82;96621.94;5050945;28;20045;-65
2021/04/17 04:53:02;;;;;;;26.52;14.05;;;;;;;3.63;70.28;96627.03;5051236;28;20041;-66
2021/04/17 04:55:28;;;;;;;27.10;14.38;;;;;;;3.66;70.29;96634.59;5050900;28;20071;-65
2021/04/17 04:57:54;;;;;;;23.15;13.25;;;;;;;3.65;70.39;96627.56;5051208;28;20041;-65
2021/04/17 05:00:21;;;;;;;25.75;13.77;;;;;;;3.62;70.30;96630.81;5050779;28;20040;-65
2021/04/17 05:02:46;;;;;;;25.00;13.23;;;;;;;3.60;70.55;96632.94;5050896;28;20056;-65
2021/04/17 05:05:14;;;;;;;25.35;13.88;;;;;;;3.61;70.67;96632.72;5050740;28;20044;-65
2021/04/17 05:07:41;;;;;;;25.77;13.88;;;;;;;3.66;70.79;96626.53;5050526;28;20439;-65
2021/04/17 05:10:08;;;;;;;24.98;14.18;;;;;;;3.77;70.86;96635.44;5051000;28;20041;-65
2021/04/17 05:12:34;;;;;;;25.88;14.02;;;;;;;3.80;69.98;96632.19;5049188;28;20053;-65
2021/04/17 05:15:00;;;;;;;27.23;13.85;;;;;;;3.84;69.67;96627.88;5051503;28;20045;-65
2021/04/17 05:17:26;;;;;;;23.60;12.90;;;;;;;3.86;69.82;96629.25;5049924;28;20060;-65
2021/04/17 05:19:53;;;;;;;25.65;13.50;;;;;;;3.88;69.70;96629.78;5033441;28;20049;-65
2021/04/17 05:22:19;;;;;;;27.40;14.60;;;;;;;3.89;69.45;96635.97;5050318;28;20051;-65
2021/04/17 05:24:46;;;;;;;27.25;14.43;;;;;;;3.91;69.62;96628.41;5050414;28;20088;-65
2021/04/17 05:27:12;;;;;;;25.08;13.93;;;;;;;3.92;69.41;96636.25;5050258;28;20056;-65
2021/04/17 05:29:38;;;;;;;25.67;13.38;;;;;;;3.94;69.52;96638.66;5051241;28;20500;-65
2021/04/17 05:32:05;;;;;;;22.98;12.93;;;;;;;3.92;69.53;96641.63;5050980;28;20569;-65
2021/04/17 05:34:32;;;;;;;23.33;13.05;;;;;;;3.91;69.82;96637.34;5049974;28;20056;-65
2021/04/17 05:36:58;;;;;;;26.30;14.75;;;;;;;3.98;70.10;96638.94;5051364;28;20056;-65
2021/04/17 05:39:23;;;;;;;24.92;14.15;;;;;;;4.00;69.95;96642.97;5049327;28;20064;-65
2021/04/17 05:41:50;;;;;;;25.60;13.25;;;;;;;4.04;69.87;96641.38;5050754;28;20110;-65
2021/04/17 05:44:16;;;;;;;25.90;14.20;;;;;;;4.05;70.07;96634.91;5049065;28;20048;-65
2021/04/17 05:46:43;;;;;;;24.95;13.68;;;;;;;4.14;70.63;96637.88;5050670;28;20416;-65
2021/04/17 05:49:10;;;;;;;27.85;14.98;;;;;;;4.13;70.40;96644.34;5049721;28;20056;-65
2021/04/17 05:51:38;;;;;;;25.15;13.82;;;;;;;4.18;70.56;96636.25;5050013;28;20084;-65
2021/04/17 05:54:05;;;;;;;29.05;14.60;;;;;;;4.23;70.43;96643.50;5050312;28;20514;-65
2021/04/17 05:56:31;;;;;;;25.83;14.43;;;;;;;4.27;70.82;96640.00;5049692;28;20044;-65
2021/04/17 05:58:58;;;;;;;28.65;15.10;;;;;;;4.29;70.84;96651.34;5050920;28;20045;-65
2021/04/17 06:01:24;;;;;;;28.85;15.63;;;;;;;4.34;70.96;96643.25;5048907;28;20180;-65
2021/04/17 06:03:50;;;;;;;27.08;14.73;;;;;;;4.39;71.15;96648.66;5050894;28;20084;-65
2021/04/17 06:06:16;;;;;;;26.10;14.82;;;;;;;4.42;71.33;96637.31;5049136;28;20045;-65
2021/04/17 06:08:43;;;;;;;26.92;14.77;;;;;;;4.47;70.62;96643.78;5049837;28;20488;-65
2021/04/17 06:11:09;;;;;;;29.05;15.43;;;;;;;4.49;70.29;96642.44;5049262;28;20048;-66
2021/04/17 06:13:35;;;;;;;29.52;15.07;;;;;;;4.45;70.14;96646.75;5050023;28;20048;-65
2021/04/17 06:16:04;;;;;;;29.20;15.88;;;;;;;4.48;70.47;96648.09;5049580;28;20049;-65
2021/04/17 06:18:30;;;;;;;26.70;15.43;;;;;;;4.53;70.83;96653.47;5049408;28;20133;-65
2021/04/17 06:20:56;;;;;;;27.88;15.23;;;;;;;4.54;70.72;96647.00;5046921;28;20049;-69
2021/04/17 06:23:22;;;;;;;28.08;15.95;;;;;;;4.46;71.21;96642.97;5044726;28;20053;-69
2021/04/17 06:25:49;;;;;;;27.45;15.70;;;;;;;4.48;71.16;96650.78;5047358;28;20053;-69
2021/04/17 06:28:15;;;;;;;29.45;15.73;;;;;;;4.48;71.13;96648.09;5045828;28;20052;-69
2021/04/17 06:30:41;;;;;;;31.13;16.25;;;;;;;4.45;71.42;96655.66;5047371;28;20052;-69
2021/04/17 06:33:09;;;;;;;31.38;16.88;;;;;;;4.41;71.67;96657.25;5046836;28;20478;-69
2021/04/17 06:35:35;;;;;;;29.92;16.98;;;;;;;4.42;72.31;96656.19;5046953;28;20459;-69
2021/04/17 06:38:01;;;;;;;29.23;16.15;;;;;;;4.40;72.82;96657.53;5046228;28;20049;-70
2021/04/17 06:40:27;;;;;;;28.00;15.95;;;;;;;4.43;73.29;96660.47;5046373;28;20049;-69
2021/04/17 06:42:55;;;;;;;33.53;17.17;;;;;;;4.48;73.61;96658.88;5046768;28;20049;-69
2021/04/17 06:45:22;;;;;;;30.40;16.38;;;;;;;4.43;73.48;96657.78;5045391;28;20099;-69
2021/04/17 06:47:49;;;;;;;29.52;16.73;;;;;;;4.41;73.00;96654.56;5028878;28;20048;-69
2021/04/17 06:50:17;;;;;;;30.80;16.42;;;;;;;4.40;73.88;96652.97;5045067;28;20045;-69
2021/04/17 06:52:45;;;;;;;31.17;17.25;;;;;;;4.39;74.56;96655.94;5046967;28;20052;-69
2021/04/17 06:55:12;;;;;;;28.45;15.23;;;;;;;4.31;73.95;96657.25;5045477;28;20053;-70
2021/04/17 06:57:39;;;;;;;30.05;16.02;;;;;;;4.34;73.95;96654.03;5048672;28;20401;-70
2021/04/17 07:00:08;;;;;;;30.98;15.75;;;;;;;4.23;73.72;96648.91;5049505;28;20049;-70
2021/04/17 07:02:34;;;;;;;25.65;14.27;;;;;;;4.13;73.95;96647.84;5050306;28;20501;-69
2021/04/17 07:05:00;;;;;;;27.00;14.95;;;;;;;4.15;74.14;96644.88;5050178;28;20052;-70
2021/04/17 07:07:30;;;;;;;29.63;14.90;;;;;;;4.10;74.51;96650.25;5049641;28;20679;-70
2021/04/17 07:09:56;;;;;;;28.20;15.02;;;;;;;4.16;75.06;96651.88;5050144;28;20102;-69
2021/04/17 07:12:22;;;;;;;28.38;15.23;;;;;;;4.16;75.27;96644.59;5048261;28;20065;-69
2021/04/17 07:14:49;;;;;;;32.80;16.48;;;;;;;4.13;75.04;96649.75;5050598;28;20049;-69
2021/04/17 07:17:16;;;;;;;31.52;15.65;;;;;;;4.11;75.60;96647.28;5049164;28;20479;-69
2021/04/17 07:19:51;;;;;;;27.30;14.95;;;;;;;4.15;75.48;96651.06;5050352;28;20463;-68
2021/04/17 07:22:19;;;;;;;27.17;14.48;;;;;;;4.20;75.64;96647.56;5049250;28;20121;-69
2021/04/17 07:24:47;;;;;;;30.35;15.48;;;;;;;4.29;75.52;96639.75;5050134;28;20423;-69
2021/04/17 07:27:35;;;;;;;27.33;15.07;;;;;;;4.28;75.18;96641.66;5049657;28;20049;-69
2021/04/17 07:30:03;;;;;;;27.77;14.57;;;;;;;4.34;76.33;96637.06;5048871;28;20072;-71
2021/04/17 07:32:29;;;;;;;26.08;12.88;;;;;;;4.38;75.77;96638.91;5050096;28;20061;-69
2021/04/17 07:35:09;;;;;;;25.58;12.75;;;;;;;4.40;75.24;96639.47;5049318;28;20562;-69
2021/04/17 07:37:36;;;;;;;24.85;13.48;;;;;;;4.45;75.52;96639.47;5049454;28;20102;-69
2021/04/17 07:40:20;;;;;;;26.10;13.02;;;;;;;4.50;74.97;96645.94;5048779;28;20512;-71
2021/04/17 07:42:50;;;;;;;28.17;13.52;;;;;;;4.56;74.77;96644.84;5049219;28;20068;-70
2021/04/17 07:45:26;;;;;;;24.33;11.63;;;;;;;4.70;74.76;96640.50;5049414;28;20056;-70
2021/04/17 07:47:53;;;;;;;21.20;11.48;;;;;;;4.71;74.41;96642.94;5049225;28;20068;-69
2021/04/17 07:50:19;;;;;;;20.92;11.70;;;;;;;4.86;73.51;96643.97;5049435;28;20572;-69
2021/04/17 07:52:46;;;;;;;18.77;11.00;;;;;;;4.88;73.35;96642.59;5048301;28;20045;-69
2021/04/17 07:55:16;;;;;;;20.08;11.40;;;;;;;4.98;73.23;96642.59;5049496;28;20052;-69
2021/04/17 07:57:45;;;;;;;23.58;10.18;;;;;;;5.06;72.98;96641.19;5048896;28;20098;-69
2021/04/17 08:00:13;;;;;;;17.15;8.68;;;;;;;5.13;71.92;96635.53;5049253;28;20053;-70
2021/04/17 08:02:42;;;;;;;19.08;9.93;;;;;;;5.30;71.57;96637.88;5031663;28;20053;-69
2021/04/17 08:05:11;;;;;;;19.40;9.80;;;;;;;5.33;70.68;96642.72;5048491;28;20150;-69
2021/04/17 08:07:37;;;;;;;15.35;9.02;;;;;;;5.42;71.64;96644.56;5049194;28;20056;-69
2021/04/17 08:10:05;;;;;;;15.77;8.73;;;;;;;5.46;70.52;96642.91;5048095;28;20049;-71
2021/04/17 08:12:34;;;;;;;17.98;8.55;;;;;;;5.60;70.53;96643.13;5049482;28;20502;-68
2021/04/17 08:15:01;;;;;;;15.02;8.77;;;;;;;5.72;70.46;96645.47;5048659;28;20053;-69
2021/04/17 08:17:27;;;;;;;11.57;7.32;;;;;;;5.78;68.57;96633.53;5049380;28;20041;-69
2021/04/17 08:19:57;;;;;;;13.30;7.85;;;;;;;5.85;68.68;96639.47;5047382;28;20709;-69
2021/04/17 08:22:24;;;;;;;16.10;9.35;;;;;;;5.99;68.69;96639.66;5047580;28;20041;-73
2021/04/17 08:24:51;;;;;;;17.40;8.32;;;;;;;5.89;66.38;96634.28;5049058;28;20057;-69
2021/04/17 08:27:17;;;;;;;16.13;9.70;;;;;;;5.74;67.70;96629.78;5048081;28;20053;-69
2021/04/17 08:29:45;;;;;;;18.27;9.85;;;;;;;5.79;67.41;96629.75;5048914;28;20059;-69
2021/04/17 08:32:33;;;;;;;16.15;8.95;;;;;;;5.87;67.09;96626.47;5047762;28;20055;-70
2021/04/17 08:35:03;;;;;;;17.70;9.73;;;;;;;5.94;66.97;96632.38;5049125;28;20111;-70
2021/04/17 08:37:31;;;;;;;17.65;10.13;;;;;;;5.98;67.48;96625.34;5047638;28;20048;-70
2021/04/17 08:39:58;;;;;;;18.73;9.63;;;;;;;6.06;67.84;96633.94;5046897;28;20049;-69
2021/04/17 08:42:43;;;;;;;18.73;10.50;;;;;;;6.10;66.34;96635.78;5047387;28;20098;-69
2021/04/17 08:45:16;;;;;;;18.75;11.50;;;;;;;6.09;65.71;96625.25;5047786;28;20084;-69
2021/04/17 08:47:51;;;;;;;19.90;11.80;;;;;;;5.86;65.98;96629.47;5049015;28;20727;-70
2021/04/17 08:50:24;;;;;;;18.20;10.98;;;;;;;5.90;67.32;96625.91;5047174;28;20072;-69
2021/04/17 08:52:56;;;;;;;16.43;9.23;;;;;;;5.79;65.97;96621.66;5048426;28;20055;-71
2021/04/17 08:55:23;;;;;;;17.80;11.57;;;;;;;5.69;66.07;96619.84;5047437;28;20049;-69
2021/04/17 08:58:10;;;;;;;17.65;11.82;;;;;;;5.89;66.76;96623.47;5048389;28;20282;-69
2021/04/17 09:00:37;;;;;;;18.40;11.60;;;;;;;6.03;68.11;96623.69;5047440;28;20079;-69
2021/04/17 09:03:04;;;;;;;18.52;11.63;;;;;;;6.26;68.23;96612.13;5047329;28;20053;-71
2021/04/17 09:05:43;;;;;;;20.65;11.30;;;;;;;6.38;65.82;96620.69;5047957;28;20467;-70
2021/04/17 09:08:14;;;;;;;16.55;9.43;;;;;;;6.27;63.14;96613.75;5045448;28;20045;-70
2021/04/17 09:10:41;;;;;;;17.92;9.18;;;;;;;6.18;62.95;96620.88;5028232;28;20101;-70
2021/04/17 09:13:32;;;;;;;15.23;10.07;;;;;;;6.33;64.57;96618.03;5045959;28;20051;-71
2021/04/17 09:16:01;;;;;;;17.73;10.18;;;;;;;6.42;65.07;96613.63;5046767;28;20482;-70
2021/04/17 09:18:41;;;;;;;16.80;10.45;;;;;;;6.53;63.49;96600.81;5047228;28;20488;-72
2021/04/17 09:21:33;;;;;;;17.23;9.50;;;;;;;6.74;64.05;96606.81;5045555;28;20056;-70
2021/04/17 09:24:00;;;;;;;14.57;9.25;;;;;;;6.79;62.61;96598.66;5047124;28;20056;-72
2021/04/17 09:26:47;;;;;;;16.15;9.65;;;;;;;6.85;62.87;96602.91;5047107;28;20044;-70
2021/04/17 09:29:26;;;;;;;16.00;9.35;;;;;;;6.97;62.61;96606.00;5047294;28;20049;-69
2021/04/17 09:31:57;;;;;;;17.23;10.10;;;;;;;7.03;62.59;96607.56;5047815;28;20048;-71
2021/04/17 09:34:24;;;;;;;14.77;9.90;;;;;;;6.95;60.37;96602.78;5046718;28;20051;-72
2021/04/17 09:36:50;;;;;;;15.20;9.77;;;;;;;6.83;62.10;96593.44;5047809;28;20049;-70
2021/04/17 09:39:28;;;;;;;14.43;9.70;;;;;;;6.90;62.36;96602.03;5047614;28;20080;-69
2021/04/17 09:41:56;;;;;;;14.77;9.73;;;;;;;6.94;61.27;96601.19;5047219;28;20057;-70
2021/04/17 09:44:23;;;;;;;15.93;9.85;;;;;;;7.01;61.48;96596.22;5046456;28;20053;-70
2021/04/17 09:47:05;;;;;;;17.52;9.13;;;;;;;7.02;59.80;96592.41;5046922;28;20053;-70
2021/04/17 09:49:40;;;;;;;17.02;9.80;;;;;;;7.04;62.29;96590.22;5046520;28;20099;-70
2021/04/17 09:52:07;;;;;;;20.92;11.02;;;;;;;7.07;62.47;96594.25;5045998;28;20099;-71
2021/04/17 09:54:34;;;;;;;20.27;10.48;;;;;;;7.03;61.24;96599.44;5047515;28;20049;-71
2021/04/17 09:57:08;;;;;;;18.23;11.30;;;;;;;7.04;61.89;96579.38;5046564;28;20456;-71
2021/04/17 09:59:34;;;;;;;17.42;10.18;;;;;;;7.09;61.81;96585.84;5029149;28;20129;-71
2021/04/17 10:02:01;;;;;;;20.08;9.25;;;;;;;7.17;61.50;96582.50;5046710;28;20049;-71
2021/04/17 10:04:54;;;;;;;14.65;9.52;;;;;;;7.20;61.40;96590.03;5046746;28;20041;-69
2021/04/17 10:07:20;;;;;;;18.65;8.90;;;;;;;7.19;60.26;96586.50;5047190;28;20229;-69
2021/04/17 10:10:00;;;;;;;17.83;9.65;;;;;;;7.17;59.39;96577.06;5046507;28;20063;-69
2021/04/17 10:12:26;;;;;;;16.73;9.20;;;;;;;7.11;60.61;96575.53;5046726;28;20045;-69
2021/04/17 10:14:52;;;;;;;14.68;9.93;;;;;;;7.09;59.98;96569.59;5046946;28;20528;-69
2021/04/17 10:17:19;;;;;;;18.33;9.80;;;;;;;7.05;60.57;96570.19;5047333;28;20048;-70
2021/04/17 10:19:45;;;;;;;16.30;9.52;;;;;;;7.03;60.22;96566.94;5046660;28;20049;-69
2021/04/17 10:22:12;;;;;;;17.52;9.75;;;;;;;7.03;59.49;96569.66;5046635;28;20548;-69
2021/04/17 10:24:40;;;;;;;17.05;9.65;;;;;;;7.03;60.59;96564.22;5046599;28;20799;-69
2021/04/17 10:27:08;;;;;;;14.35;9.45;;;;;;;7.10;60.24;96571.19;5046419;28;20068;-69
2021/04/17 10:29:46;;;;;;;15.20;9.63;;;;;;;7.11;59.65;96564.69;5047221;28;20053;-69
2021/04/17 10:32:14;;;;;;;15.50;9.82;;;;;;;7.20;60.21;96558.31;5049272;28;20052;-70
2021/04/17 10:34:43;;;;;;;19.10;9.93;;;;;;;7.35;60.38;96551.91;5051265;28;20064;-70
2021/04/17 10:37:15;;;;;;;13.70;9.00;;;;;;;7.53;59.89;96553.81;5049790;28;20106;-71
2021/04/17 10:39:59;;;;;;;14.00;8.70;;;;;;;7.80;58.68;96552.34;5050879;28;20388;-69
2021/04/17 10:42:25;;;;;;;13.60;8.00;;;;;;;7.98;58.19;96548.78;5049779;28;20048;-70
2021/04/17 10:44:53;;;;;;;12.80;8.10;;;;;;;8.13;58.22;96555.84;5051425;28;20752;-70
2021/04/17 10:47:19;;;;;;;12.00;7.82;;;;;;;8.25;56.89;96544.56;5051016;28;20044;-70
2021/04/17 10:49:45;;;;;;;12.30;7.80;;;;;;;8.42;58.01;96547.53;5050093;28;20053;-70
2021/04/17 10:52:27;;;;;;;14.40;8.77;;;;;;;8.49;56.36;96537.06;5040920;28;20048;-70
2021/04/17 10:54:54;;;;;;;17.02;8.27;;;;;;;8.47;55.48;96538.50;5050271;28;20053;-69
2021/04/17 10:57:21;;;;;;;11.80;7.75;;;;;;;8.47;56.53;96542.00;5050707;28;20053;-70
2021/04/17 10:59:55;;;;;;;14.57;7.30;;;;;;;8.14;54.60;96534.97;5032371;28;20110;-69
2021/04/17 11:02:29;;;;;;;12.18;7.55;;;;;;;8.14;55.47;96540.38;5049892;28;20048;-69
2021/04/17 11:04:56;;;;;;;16.75;7.75;;;;;;;8.10;55.22;96535.56;5050722;28;20052;-69
2021/04/17 11:07:31;;;;;;;13.65;7.68;;;;;;;8.05;56.46;96532.16;5049093;28;20049;-69
2021/04/17 11:09:57;;;;;;;11.32;7.30;;;;;;;8.03;56.99;96532.41;5050740;28;20496;-70
2021/04/17 11:12:25;;;;;;;12.98;7.55;;;;;;;7.96;56.95;96529.28;5048881;28;20084;-70
2021/04/17 11:14:51;;;;;;;12.15;7.60;;;;;;;7.82;56.48;96539.28;5050810;28;20052;-69
2021/04/17 11:17:19;;;;;;;16.88;8.23;;;;;;;7.72;56.76;96534.81;5049125;28;20064;-70
2021/04/17 11:19:45;;;;;;;17.23;7.85;;;;;;;7.73;58.23;96530.22;5050166;28;20751;-69
2021/04/17 11:22:12;;;;;;;12.68;7.82;;;;;;;7.74;57.09;96521.78;5049594;28;20045;-70
2021/04/17 11:24:40;;;;;;;20.15;8.68;;;;;;;7.78;57.29;96527.44;5050274;28;20060;-70
2021/04/17 11:27:06;;;;;;;15.48;8.18;;;;;;;7.84;56.57;96523.53;5050044;28;20052;-70
2021/04/17 11:29:32;;;;;;;12.70;7.93;;;;;;;7.90;56.83;96522.34;5049785;28;20504;-70
2021/04/17 11:31:58;;;;;;;13.45;7.45;;;;;;;8.04;56.68;96520.50;5049825;28;20095;-70